sensor_id;sensor_type;location;lat;lon;timestamp;P1;durP1;ratioP1;P2;durP2;ratioP2
7881;SDS011;3986;41.884;23.466;2022-08-20T00:01:54;27.42;;;14.50;;
7881;SDS011;3986;41.884;23.466;2022-08-20T00:04:21;30.92;;;14.07;;
7881;SDS011;3986;41.884;23.466;2022-08-20T00:06:48;43.92;;;16.10;;
7881;SDS011;3986;41.884;23.466;2022-08-20T00:09:16;28.23;;;17.02;;
7881;SDS011;3986;41.884;23.466;2022-08-20T00:11:43;17.55;;;15.85;;
7881;SDS011;3986;41.884;23.466;2022-08-20T00:14:10;17.08;;;15.35;;
7881;SDS011;3986;41.884;23.466;2022-08-20T00:16:38;15.85;;;13.98;;
7881;SDS011;3986;41.884;23.466;2022-08-20T00:19:07;34.88;;;15.60;;
7881;SDS011;3986;41.884;23.466;2022-08-20T00:21:34;28.55;;;15.10;;
7881;SDS011;3986;41.884;23.466;2022-08-20T00:24:02;47.25;;;16.80;;
7881;SDS011;3986;41.884;23.466;2022-08-20T00:26:31;40.15;;;15.18;;
7881;SDS011;3986;41.884;23.466;2022-08-20T00:28:58;53.08;;;17.23;;
7881;SDS011;3986;41.884;23.466;2022-08-20T00:31:25;34.67;;;16.08;;
7881;SDS011;3986;41.884;23.466;2022-08-20T00:33:52;28.90;;;16.15;;
7881;SDS011;3986;41.884;23.466;2022-08-20T00:36:19;20.70;;;14.90;;
7881;SDS011;3986;41.884;23.466;2022-08-20T00:38:47;23.25;;;15.13;;
7881;SDS011;3986;41.884;23.466;2022-08-20T00:41:16;26.83;;;14.52;;
7881;SDS011;3986;41.884;23.466;2022-08-20T00:43:47;15.65;;;14.35;;
7881;SDS011;3986;41.884;23.466;2022-08-20T00:46:17;17.70;;;16.00;;
7881;SDS011;3986;41.884;23.466;2022-08-20T00:48:47;22.00;;;15.32;;
7881;SDS011;3986;41.884;23.466;2022-08-20T00:51:17;15.68;;;14.48;;
7881;SDS011;3986;41.884;23.466;2022-08-20T00:53:50;26.33;;;16.02;;
7881;SDS011;3986;41.884;23.466;2022-08-20T00:56:17;16.00;;;14.27;;
7881;SDS011;3986;41.884;23.466;2022-08-20T00:58:45;15.18;;;14.07;;
7881;SDS011;3986;41.884;23.466;2022-08-20T01:01:15;17.67;;;13.98;;
7881;SDS011;3986;41.884;23.466;2022-08-20T01:03:43;15.82;;;14.30;;
7881;SDS011;3986;41.884;23.466;2022-08-20T01:06:10;17.60;;;15.48;;
7881;SDS011;3986;41.884;23.466;2022-08-20T01:08:37;15.70;;;14.10;;
7881;SDS011;3986;41.884;23.466;2022-08-20T01:11:05;25.13;;;14.40;;
7881;SDS011;3986;41.884;23.466;2022-08-20T01:13:39;19.90;;;14.93;;
7881;SDS011;3986;41.884;23.466;2022-08-20T01:16:10;24.20;;;14.98;;
7881;SDS011;3986;41.884;23.466;2022-08-20T01:18:43;20.48;;;18.42;;
7881;SDS011;3986;41.884;23.466;2022-08-20T01:21:12;20.77;;;18.67;;
7881;SDS011;3986;41.884;23.466;2022-08-20T01:23:41;21.17;;;19.17;;
7881;SDS011;3986;41.884;23.466;2022-08-20T01:26:16;24.55;;;20.92;;
7881;SDS011;3986;41.884;23.466;2022-08-20T01:28:46;23.73;;;20.85;;
7881;SDS011;3986;41.884;23.466;2022-08-20T01:31:17;23.40;;;20.73;;
7881;SDS011;3986;41.884;23.466;2022-08-20T01:33:47;25.40;;;22.70;;
7881;SDS011;3986;41.884;23.466;2022-08-20T01:36:16;27.05;;;23.48;;
7881;SDS011;3986;41.884;23.466;2022-08-20T01:38:44;25.50;;;22.95;;
7881;SDS011;3986;41.884;23.466;2022-08-20T01:44:12;26.15;;;23.65;;
7881;SDS011;3986;41.884;23.466;2022-08-20T01:46:40;27.17;;;23.20;;
7881;SDS011;3986;41.884;23.466;2022-08-20T01:49:09;40.53;;;23.63;;
7881;SDS011;3986;41.884;23.466;2022-08-20T01:51:39;25.05;;;22.15;;
7881;SDS011;3986;41.884;23.466;2022-08-20T01:54:07;36.50;;;19.20;;
7881;SDS011;3986;41.884;23.466;2022-08-20T01:56:34;35.85;;;20.45;;
7881;SDS011;3986;41.884;23.466;2022-08-20T01:59:16;22.10;;;20.15;;
7881;SDS011;3986;41.884;23.466;2022-08-20T02:01:43;22.27;;;17.65;;
7881;SDS011;3986;41.884;23.466;2022-08-20T02:04:10;29.27;;;17.38;;
7881;SDS011;3986;41.884;23.466;2022-08-20T02:06:38;26.95;;;16.80;;
7881;SDS011;3986;41.884;23.466;2022-08-20T02:09:08;28.42;;;16.42;;
7881;SDS011;3986;41.884;23.466;2022-08-20T02:11:36;36.95;;;17.38;;
7881;SDS011;3986;41.884;23.466;2022-08-20T02:14:04;31.08;;;16.83;;
7881;SDS011;3986;41.884;23.466;2022-08-20T02:16:36;18.95;;;16.27;;
7881;SDS011;3986;41.884;23.466;2022-08-20T02:19:08;39.45;;;17.20;;
7881;SDS011;3986;41.884;23.466;2022-08-20T02:21:39;39.25;;;17.88;;
7881;SDS011;3986;41.884;23.466;2022-08-20T02:24:10;35.20;;;18.00;;
7881;SDS011;3986;41.884;23.466;2022-08-20T02:26:37;32.72;;;18.17;;
7881;SDS011;3986;41.884;23.466;2022-08-20T02:29:05;20.27;;;15.68;;
7881;SDS011;3986;41.884;23.466;2022-08-20T02:31:36;40.90;;;16.13;;
7881;SDS011;3986;41.884;23.466;2022-08-20T02:34:04;31.42;;;15.57;;
7881;SDS011;3986;41.884;23.466;2022-08-20T02:36:34;42.97;;;16.23;;
7881;SDS011;3986;41.884;23.466;2022-08-20T02:39:02;33.05;;;15.57;;
7881;SDS011;3986;41.884;23.466;2022-08-20T02:41:31;44.80;;;17.35;;
7881;SDS011;3986;41.884;23.466;2022-08-20T02:43:58;27.17;;;14.63;;
7881;SDS011;3986;41.884;23.466;2022-08-20T02:46:25;15.38;;;13.93;;
7881;SDS011;3986;41.884;23.466;2022-08-20T02:48:54;18.45;;;15.45;;
7881;SDS011;3986;41.884;23.466;2022-08-20T02:51:21;16.90;;;15.23;;
7881;SDS011;3986;41.884;23.466;2022-08-20T02:53:48;20.17;;;16.42;;
7881;SDS011;3986;41.884;23.466;2022-08-20T02:56:16;17.15;;;15.27;;
7881;SDS011;3986;41.884;23.466;2022-08-20T02:58:43;27.88;;;15.90;;
7881;SDS011;3986;41.884;23.466;2022-08-20T03:01:12;16.73;;;14.38;;
7881;SDS011;3986;41.884;23.466;2022-08-20T03:03:40;32.28;;;16.10;;
7881;SDS011;3986;41.884;23.466;2022-08-20T03:06:10;24.85;;;15.38;;
7881;SDS011;3986;41.884;23.466;2022-08-20T03:08:38;36.78;;;17.33;;
7881;SDS011;3986;41.884;23.466;2022-08-20T03:11:05;30.17;;;17.95;;
7881;SDS011;3986;41.884;23.466;2022-08-20T03:13:33;34.88;;;17.50;;
7881;SDS011;3986;41.884;23.466;2022-08-20T03:16:02;21.52;;;18.70;;
7881;SDS011;3986;41.884;23.466;2022-08-20T03:18:30;22.92;;;17.52;;
7881;SDS011;3986;41.884;23.466;2022-08-20T03:21:04;42.15;;;20.25;;
7881;SDS011;3986;41.884;23.466;2022-08-20T03:23:33;36.03;;;18.42;;
7881;SDS011;3986;41.884;23.466;2022-08-20T03:26:02;26.50;;;17.50;;
7881;SDS011;3986;41.884;23.466;2022-08-20T03:28:30;25.73;;;15.95;;
7881;SDS011;3986;41.884;23.466;2022-08-20T03:30:56;29.15;;;16.27;;
7881;SDS011;3986;41.884;23.466;2022-08-20T03:33:24;29.88;;;17.60;;
7881;SDS011;3986;41.884;23.466;2022-08-20T03:35:52;42.65;;;22.05;;
7881;SDS011;3986;41.884;23.466;2022-08-20T03:38:20;40.03;;;22.73;;
7881;SDS011;3986;41.884;23.466;2022-08-20T03:40:50;39.90;;;22.90;;
7881;SDS011;3986;41.884;23.466;2022-08-20T03:43:16;50.42;;;26.88;;
7881;SDS011;3986;41.884;23.466;2022-08-20T03:45:44;45.50;;;25.95;;
7881;SDS011;3986;41.884;23.466;2022-08-20T03:48:12;74.72;;;28.35;;
7881;SDS011;3986;41.884;23.466;2022-08-20T03:50:41;40.17;;;26.20;;
7881;SDS011;3986;41.884;23.466;2022-08-20T03:53:09;39.42;;;27.75;;
7881;SDS011;3986;41.884;23.466;2022-08-20T03:55:38;51.47;;;29.48;;
7881;SDS011;3986;41.884;23.466;2022-08-20T03:58:07;38.25;;;31.20;;
7881;SDS011;3986;41.884;23.466;2022-08-20T04:00:36;50.13;;;27.80;;
7881;SDS011;3986;41.884;23.466;2022-08-20T04:03:05;42.50;;;22.23;;
7881;SDS011;3986;41.884;23.466;2022-08-20T04:05:33;27.67;;;21.67;;
7881;SDS011;3986;41.884;23.466;2022-08-20T04:08:03;31.90;;;21.95;;
7881;SDS011;3986;41.884;23.466;2022-08-20T04:10:31;33.42;;;21.77;;
7881;SDS011;3986;41.884;23.466;2022-08-20T04:12:58;36.25;;;23.33;;
7881;SDS011;3986;41.884;23.466;2022-08-20T04:15:26;27.92;;;25.08;;
7881;SDS011;3986;41.884;23.466;2022-08-20T04:17:53;28.60;;;26.02;;
7881;SDS011;3986;41.884;23.466;2022-08-20T04:20:21;51.08;;;26.75;;
7881;SDS011;3986;41.884;23.466;2022-08-20T04:22:50;55.50;;;27.05;;
7881;SDS011;3986;41.884;23.466;2022-08-20T04:25:17;70.88;;;32.67;;
7881;SDS011;3986;41.884;23.466;2022-08-20T04:27:45;48.58;;;29.15;;
7881;SDS011;3986;41.884;23.466;2022-08-20T04:30:15;69.30;;;28.80;;
7881;SDS011;3986;41.884;23.466;2022-08-20T04:32:44;59.05;;;27.63;;
7881;SDS011;3986;41.884;23.466;2022-08-20T04:35:12;46.67;;;26.75;;
7881;SDS011;3986;41.884;23.466;2022-08-20T04:37:42;48.00;;;28.70;;
7881;SDS011;3986;41.884;23.466;2022-08-20T04:40:11;75.30;;;29.77;;
7881;SDS011;3986;41.884;23.466;2022-08-20T04:43:00;48.95;;;28.35;;
7881;SDS011;3986;41.884;23.466;2022-08-20T04:45:28;50.25;;;28.77;;
7881;SDS011;3986;41.884;23.466;2022-08-20T04:47:59;33.13;;;26.38;;
7881;SDS011;3986;41.884;23.466;2022-08-20T04:50:29;46.10;;;25.98;;
7881;SDS011;3986;41.884;23.466;2022-08-20T04:52:59;35.65;;;24.00;;
7881;SDS011;3986;41.884;23.466;2022-08-20T04:55:26;72.22;;;29.02;;
7881;SDS011;3986;41.884;23.466;2022-08-20T04:58:01;48.65;;;26.13;;
7881;SDS011;3986;41.884;23.466;2022-08-20T05:00:30;71.65;;;26.38;;
7881;SDS011;3986;41.884;23.466;2022-08-20T05:02:58;108.80;;;25.70;;
7881;SDS011;3986;41.884;23.466;2022-08-20T05:05:25;100.93;;;38.53;;
7881;SDS011;3986;41.884;23.466;2022-08-20T05:07:53;33.58;;;24.65;;
7881;SDS011;3986;41.884;23.466;2022-08-20T05:10:22;66.43;;;35.63;;
7881;SDS011;3986;41.884;23.466;2022-08-20T05:12:49;45.10;;;28.00;;
7881;SDS011;3986;41.884;23.466;2022-08-20T05:15:16;58.15;;;25.20;;
7881;SDS011;3986;41.884;23.466;2022-08-20T05:17:43;79.32;;;30.35;;
7881;SDS011;3986;41.884;23.466;2022-08-20T05:20:12;60.30;;;33.70;;
7881;SDS011;3986;41.884;23.466;2022-08-20T05:22:43;60.08;;;31.17;;
7881;SDS011;3986;41.884;23.466;2022-08-20T05:25:10;68.28;;;32.33;;
7881;SDS011;3986;41.884;23.466;2022-08-20T05:27:37;34.63;;;29.38;;
7881;SDS011;3986;41.884;23.466;2022-08-20T05:30:07;87.80;;;34.15;;
7881;SDS011;3986;41.884;23.466;2022-08-20T05:32:35;59.40;;;31.25;;
7881;SDS011;3986;41.884;23.466;2022-08-20T05:35:02;62.92;;;31.17;;
7881;SDS011;3986;41.884;23.466;2022-08-20T05:37:34;90.20;;;32.35;;
7881;SDS011;3986;41.884;23.466;2022-08-20T05:40:01;40.10;;;29.08;;
7881;SDS011;3986;41.884;23.466;2022-08-20T05:42:34;67.93;;;33.58;;
7881;SDS011;3986;41.884;23.466;2022-08-20T05:45:01;56.92;;;31.02;;
7881;SDS011;3986;41.884;23.466;2022-08-20T05:47:28;53.33;;;31.98;;
7881;SDS011;3986;41.884;23.466;2022-08-20T05:49:55;41.72;;;28.80;;
7881;SDS011;3986;41.884;23.466;2022-08-20T05:52:22;66.00;;;29.75;;
7881;SDS011;3986;41.884;23.466;2022-08-20T05:54:51;51.08;;;25.42;;
7881;SDS011;3986;41.884;23.466;2022-08-20T05:57:19;91.53;;;28.08;;
7881;SDS011;3986;41.884;23.466;2022-08-20T05:59:48;44.90;;;26.70;;
7881;SDS011;3986;41.884;23.466;2022-08-20T06:02:15;68.72;;;32.03;;
7881;SDS011;3986;41.884;23.466;2022-08-20T06:04:59;70.20;;;30.30;;
7881;SDS011;3986;41.884;23.466;2022-08-20T06:07:26;45.38;;;27.95;;
7881;SDS011;3986;41.884;23.466;2022-08-20T06:09:55;49.97;;;26.60;;
7881;SDS011;3986;41.884;23.466;2022-08-20T06:12:21;79.47;;;25.55;;
7881;SDS011;3986;41.884;23.466;2022-08-20T06:14:48;51.22;;;25.33;;
7881;SDS011;3986;41.884;23.466;2022-08-20T06:17:16;50.58;;;25.58;;
7881;SDS011;3986;41.884;23.466;2022-08-20T06:19:45;38.28;;;27.50;;
7881;SDS011;3986;41.884;23.466;2022-08-20T06:22:13;55.17;;;28.20;;
7881;SDS011;3986;41.884;23.466;2022-08-20T06:24:40;40.53;;;26.17;;
7881;SDS011;3986;41.884;23.466;2022-08-20T06:27:11;33.85;;;27.02;;
7881;SDS011;3986;41.884;23.466;2022-08-20T06:29:39;55.95;;;27.83;;
7881;SDS011;3986;41.884;23.466;2022-08-20T06:32:06;52.50;;;28.83;;
7881;SDS011;3986;41.884;23.466;2022-08-20T06:34:33;54.92;;;27.17;;
7881;SDS011;3986;41.884;23.466;2022-08-20T06:37:00;46.35;;;27.30;;
7881;SDS011;3986;41.884;23.466;2022-08-20T06:39:27;59.45;;;29.15;;
7881;SDS011;3986;41.884;23.466;2022-08-20T06:41:55;53.47;;;29.67;;
7881;SDS011;3986;41.884;23.466;2022-08-20T06:44:24;73.22;;;30.40;;
7881;SDS011;3986;41.884;23.466;2022-08-20T06:46:52;47.58;;;25.42;;
7881;SDS011;3986;41.884;23.466;2022-08-20T06:49:20;73.55;;;25.75;;
7881;SDS011;3986;41.884;23.466;2022-08-20T06:51:47;62.35;;;23.25;;
7881;SDS011;3986;41.884;23.466;2022-08-20T06:54:14;62.55;;;24.55;;
7881;SDS011;3986;41.884;23.466;2022-08-20T06:56:41;46.92;;;27.60;;
7881;SDS011;3986;41.884;23.466;2022-08-20T06:59:08;35.13;;;27.45;;
7881;SDS011;3986;41.884;23.466;2022-08-20T07:01:36;34.38;;;26.58;;
7881;SDS011;3986;41.884;23.466;2022-08-20T07:04:03;53.83;;;27.55;;
7881;SDS011;3986;41.884;23.466;2022-08-20T07:06:31;43.40;;;28.13;;
7881;SDS011;3986;41.884;23.466;2022-08-20T07:08:58;34.35;;;23.17;;
7881;SDS011;3986;41.884;23.466;2022-08-20T07:11:25;56.78;;;27.20;;
7881;SDS011;3986;41.884;23.466;2022-08-20T07:13:52;69.80;;;37.90;;
7881;SDS011;3986;41.884;23.466;2022-08-20T07:16:20;102.15;;;25.88;;
7881;SDS011;3986;41.884;23.466;2022-08-20T07:18:49;84.65;;;24.80;;
7881;SDS011;3986;41.884;23.466;2022-08-20T07:21:16;67.03;;;25.10;;
7881;SDS011;3986;41.884;23.466;2022-08-20T07:23:42;44.60;;;23.85;;
7881;SDS011;3986;41.884;23.466;2022-08-20T07:26:10;53.15;;;21.08;;
7881;SDS011;3986;41.884;23.466;2022-08-20T07:28:37;50.78;;;28.90;;
7881;SDS011;3986;41.884;23.466;2022-08-20T07:31:04;62.58;;;28.40;;
7881;SDS011;3986;41.884;23.466;2022-08-20T07:33:49;50.90;;;21.73;;
7881;SDS011;3986;41.884;23.466;2022-08-20T07:36:16;53.35;;;23.08;;
7881;SDS011;3986;41.884;23.466;2022-08-20T07:38:43;59.30;;;22.33;;
7881;SDS011;3986;41.884;23.466;2022-08-20T07:41:12;56.83;;;21.95;;
7881;SDS011;3986;41.884;23.466;2022-08-20T07:43:39;42.22;;;24.75;;
7881;SDS011;3986;41.884;23.466;2022-08-20T07:46:08;59.45;;;28.45;;
7881;SDS011;3986;41.884;23.466;2022-08-20T07:48:35;80.97;;;24.60;;
7881;SDS011;3986;41.884;23.466;2022-08-20T07:51:06;81.05;;;31.33;;
7881;SDS011;3986;41.884;23.466;2022-08-20T07:53:36;94.50;;;24.67;;
7881;SDS011;3986;41.884;23.466;2022-08-20T07:56:05;54.90;;;33.95;;
7881;SDS011;3986;41.884;23.466;2022-08-20T07:58:33;60.80;;;28.30;;
7881;SDS011;3986;41.884;23.466;2022-08-20T08:01:02;69.38;;;22.08;;
7881;SDS011;3986;41.884;23.466;2022-08-20T08:03:29;143.63;;;28.17;;
7881;SDS011;3986;41.884;23.466;2022-08-20T08:05:56;75.18;;;22.88;;
7881;SDS011;3986;41.884;23.466;2022-08-20T08:08:25;52.80;;;17.38;;
7881;SDS011;3986;41.884;23.466;2022-08-20T08:10:54;57.92;;;18.17;;
7881;SDS011;3986;41.884;23.466;2022-08-20T08:13:23;68.90;;;20.63;;
7881;SDS011;3986;41.884;23.466;2022-08-20T08:15:52;72.22;;;16.27;;
7881;SDS011;3986;41.884;23.466;2022-08-20T08:18:23;105.38;;;19.42;;
7881;SDS011;3986;41.884;23.466;2022-08-20T08:20:53;78.53;;;18.08;;
7881;SDS011;3986;41.884;23.466;2022-08-20T08:23:21;98.68;;;20.67;;
7881;SDS011;3986;41.884;23.466;2022-08-20T08:25:50;90.75;;;20.52;;
7881;SDS011;3986;41.884;23.466;2022-08-20T08:28:18;93.13;;;20.58;;
7881;SDS011;3986;41.884;23.466;2022-08-20T08:30:46;88.97;;;20.05;;
7881;SDS011;3986;41.884;23.466;2022-08-20T08:33:17;88.28;;;19.85;;
7881;SDS011;3986;41.884;23.466;2022-08-20T08:35:55;147.93;;;31.77;;
7881;SDS011;3986;41.884;23.466;2022-08-20T08:38:27;99.28;;;21.10;;
7881;SDS011;3986;41.884;23.466;2022-08-20T08:40:56;63.72;;;17.27;;
7881;SDS011;3986;41.884;23.466;2022-08-20T08:43:24;135.23;;;20.60;;
7881;SDS011;3986;41.884;23.466;2022-08-20T08:45:54;106.57;;;19.42;;
7881;SDS011;3986;41.884;23.466;2022-08-20T08:48:28;65.88;;;16.75;;
7881;SDS011;3986;41.884;23.466;2022-08-20T08:50:57;75.25;;;17.90;;
7881;SDS011;3986;41.884;23.466;2022-08-20T08:53:26;82.63;;;18.15;;
7881;SDS011;3986;41.884;23.466;2022-08-20T08:55:59;44.90;;;16.02;;
7881;SDS011;3986;41.884;23.466;2022-08-20T08:58:26;73.97;;;17.63;;
7881;SDS011;3986;41.884;23.466;2022-08-20T09:00:53;77.35;;;17.80;;
7881;SDS011;3986;41.884;23.466;2022-08-20T09:03:22;122.57;;;19.92;;
7881;SDS011;3986;41.884;23.466;2022-08-20T09:05:52;82.60;;;18.23;;
7881;SDS011;3986;41.884;23.466;2022-08-20T09:08:23;49.60;;;15.30;;
7881;SDS011;3986;41.884;23.466;2022-08-20T09:10:52;104.47;;;23.48;;
7881;SDS011;3986;41.884;23.466;2022-08-20T09:13:21;115.25;;;18.48;;
7881;SDS011;3986;41.884;23.466;2022-08-20T09:15:47;73.63;;;15.90;;
7881;SDS011;3986;41.884;23.466;2022-08-20T09:18:14;47.40;;;13.25;;
7881;SDS011;3986;41.884;23.466;2022-08-20T09:20:41;74.78;;;14.13;;
7881;SDS011;3986;41.884;23.466;2022-08-20T09:23:08;52.85;;;13.82;;
7881;SDS011;3986;41.884;23.466;2022-08-20T09:25:35;76.65;;;14.32;;
7881;SDS011;3986;41.884;23.466;2022-08-20T09:28:02;176.25;;;19.67;;
7881;SDS011;3986;41.884;23.466;2022-08-20T09:30:31;133.48;;;17.75;;
7881;SDS011;3986;41.884;23.466;2022-08-20T09:32:58;121.40;;;17.10;;
7881;SDS011;3986;41.884;23.466;2022-08-20T09:35:25;129.13;;;17.20;;
7881;SDS011;3986;41.884;23.466;2022-08-20T09:37:52;118.55;;;16.58;;
7881;SDS011;3986;41.884;23.466;2022-08-20T09:40:19;172.07;;;18.52;;
7881;SDS011;3986;41.884;23.466;2022-08-20T09:42:46;71.75;;;13.75;;
7881;SDS011;3986;41.884;23.466;2022-08-20T09:45:14;105.90;;;14.70;;
7881;SDS011;3986;41.884;23.466;2022-08-20T09:47:42;77.78;;;15.57;;
7881;SDS011;3986;41.884;23.466;2022-08-20T09:50:09;70.38;;;13.50;;
7881;SDS011;3986;41.884;23.466;2022-08-20T09:52:37;66.70;;;13.82;;
7881;SDS011;3986;41.884;23.466;2022-08-20T09:55:13;115.70;;;15.63;;
7881;SDS011;3986;41.884;23.466;2022-08-20T09:57:45;89.43;;;14.85;;
7881;SDS011;3986;41.884;23.466;2022-08-20T10:00:13;94.32;;;15.00;;
7881;SDS011;3986;41.884;23.466;2022-08-20T10:02:40;89.88;;;15.05;;
7881;SDS011;3986;41.884;23.466;2022-08-20T10:05:09;76.78;;;14.13;;
7881;SDS011;3986;41.884;23.466;2022-08-20T10:07:36;93.65;;;14.55;;
7881;SDS011;3986;41.884;23.466;2022-08-20T10:10:05;87.28;;;14.48;;
7881;SDS011;3986;41.884;23.466;2022-08-20T10:12:33;115.18;;;15.98;;
7881;SDS011;3986;41.884;23.466;2022-08-20T10:15:00;92.18;;;14.60;;
7881;SDS011;3986;41.884;23.466;2022-08-20T10:17:27;106.28;;;15.55;;
7881;SDS011;3986;41.884;23.466;2022-08-20T10:19:55;87.60;;;14.40;;
7881;SDS011;3986;41.884;23.466;2022-08-20T10:22:22;107.47;;;14.18;;
7881;SDS011;3986;41.884;23.466;2022-08-20T10:24:49;99.65;;;14.40;;
7881;SDS011;3986;41.884;23.466;2022-08-20T10:27:16;90.68;;;14.20;;
7881;SDS011;3986;41.884;23.466;2022-08-20T10:29:43;132.45;;;16.05;;
7881;SDS011;3986;41.884;23.466;2022-08-20T10:32:11;63.67;;;12.40;;
7881;SDS011;3986;41.884;23.466;2022-08-20T10:34:40;56.05;;;12.77;;
7881;SDS011;3986;41.884;23.466;2022-08-20T10:37:12;68.38;;;12.98;;
7881;SDS011;3986;41.884;23.466;2022-08-20T10:39:41;94.63;;;13.32;;
7881;SDS011;3986;41.884;23.466;2022-08-20T10:42:08;62.28;;;12.40;;
7881;SDS011;3986;41.884;23.466;2022-08-20T10:44:35;114.13;;;14.70;;
7881;SDS011;3986;41.884;23.466;2022-08-20T10:47:12;77.13;;;13.10;;
7881;SDS011;3986;41.884;23.466;2022-08-20T10:49:44;66.90;;;13.75;;
7881;SDS011;3986;41.884;23.466;2022-08-20T10:52:13;85.38;;;13.20;;
7881;SDS011;3986;41.884;23.466;2022-08-20T10:54:39;52.70;;;12.43;;
7881;SDS011;3986;41.884;23.466;2022-08-20T10:57:07;114.38;;;14.68;;
7881;SDS011;3986;41.884;23.466;2022-08-20T10:59:38;79.05;;;14.43;;
7881;SDS011;3986;41.884;23.466;2022-08-20T11:02:06;108.05;;;16.00;;
7881;SDS011;3986;41.884;23.466;2022-08-20T11:04:33;105.07;;;13.95;;
7881;SDS011;3986;41.884;23.466;2022-08-20T11:07:09;49.95;;;12.05;;
7881;SDS011;3986;41.884;23.466;2022-08-20T11:09:38;93.57;;;14.00;;
7881;SDS011;3986;41.884;23.466;2022-08-20T11:12:05;51.30;;;12.88;;
7881;SDS011;3986;41.884;23.466;2022-08-20T11:14:32;77.47;;;12.85;;
7881;SDS011;3986;41.884;23.466;2022-08-20T11:16:59;102.07;;;14.32;;
7881;SDS011;3986;41.884;23.466;2022-08-20T11:19:26;97.53;;;14.15;;
7881;SDS011;3986;41.884;23.466;2022-08-20T11:21:53;175.88;;;18.02;;
7881;SDS011;3986;41.884;23.466;2022-08-20T11:24:20;41.60;;;12.27;;
7881;SDS011;3986;41.884;23.466;2022-08-20T11:26:48;30.33;;;11.15;;
7881;SDS011;3986;41.884;23.466;2022-08-20T11:29:17;54.17;;;12.93;;
7881;SDS011;3986;41.884;23.466;2022-08-20T11:31:44;53.05;;;12.10;;
7881;SDS011;3986;41.884;23.466;2022-08-20T11:34:11;83.40;;;14.38;;
7881;SDS011;3986;41.884;23.466;2022-08-20T11:36:38;67.82;;;12.65;;
7881;SDS011;3986;41.884;23.466;2022-08-20T11:39:05;50.35;;;12.45;;
7881;SDS011;3986;41.884;23.466;2022-08-20T11:41:32;108.53;;;13.75;;
7881;SDS011;3986;41.884;23.466;2022-08-20T11:44:00;101.82;;;13.65;;
7881;SDS011;3986;41.884;23.466;2022-08-20T11:46:27;68.35;;;12.68;;
7881;SDS011;3986;41.884;23.466;2022-08-20T11:48:56;201.10;;;18.60;;
7881;SDS011;3986;41.884;23.466;2022-08-20T11:51:23;55.08;;;11.93;;
7881;SDS011;3986;41.884;23.466;2022-08-20T11:53:50;76.20;;;13.38;;
7881;SDS011;3986;41.884;23.466;2022-08-20T11:56:17;101.40;;;13.43;;
7881;SDS011;3986;41.884;23.466;2022-08-20T11:58:44;164.93;;;16.58;;
7881;SDS011;3986;41.884;23.466;2022-08-20T12:01:13;56.75;;;11.95;;
7881;SDS011;3986;41.884;23.466;2022-08-20T12:03:40;102.55;;;14.23;;
7881;SDS011;3986;41.884;23.466;2022-08-20T12:06:07;68.75;;;12.25;;
7881;SDS011;3986;41.884;23.466;2022-08-20T12:08:33;50.25;;;11.40;;
7881;SDS011;3986;41.884;23.466;2022-08-20T12:11:00;75.75;;;12.40;;
7881;SDS011;3986;41.884;23.466;2022-08-20T12:13:29;77.47;;;13.35;;
7881;SDS011;3986;41.884;23.466;2022-08-20T12:15:58;152.38;;;17.25;;
7881;SDS011;3986;41.884;23.466;2022-08-20T12:18:27;68.93;;;13.82;;
7881;SDS011;3986;41.884;23.466;2022-08-20T12:20:54;98.05;;;13.27;;
7881;SDS011;3986;41.884;23.466;2022-08-20T12:23:21;49.03;;;11.75;;
7881;SDS011;3986;41.884;23.466;2022-08-20T12:25:47;61.03;;;12.70;;
7881;SDS011;3986;41.884;23.466;2022-08-20T12:28:14;81.90;;;13.63;;
7881;SDS011;3986;41.884;23.466;2022-08-20T12:30:41;70.55;;;13.30;;
7881;SDS011;3986;41.884;23.466;2022-08-20T12:33:08;95.38;;;14.43;;
7881;SDS011;3986;41.884;23.466;2022-08-20T12:35:37;75.15;;;13.55;;
7881;SDS011;3986;41.884;23.466;2022-08-20T12:38:03;79.63;;;14.40;;
7881;SDS011;3986;41.884;23.466;2022-08-20T12:40:31;46.40;;;12.30;;
7881;SDS011;3986;41.884;23.466;2022-08-20T12:42:59;55.88;;;12.90;;
7881;SDS011;3986;41.884;23.466;2022-08-20T12:45:26;180.90;;;18.30;;
7881;SDS011;3986;41.884;23.466;2022-08-20T12:47:58;56.83;;;12.70;;
7881;SDS011;3986;41.884;23.466;2022-08-20T12:50:26;91.80;;;14.90;;
7881;SDS011;3986;41.884;23.466;2022-08-20T12:52:54;75.28;;;13.93;;
7881;SDS011;3986;41.884;23.466;2022-08-20T12:55:21;143.45;;;19.27;;
7881;SDS011;3986;41.884;23.466;2022-08-20T12:57:49;94.90;;;15.85;;
7881;SDS011;3986;41.884;23.466;2022-08-20T13:00:18;75.35;;;15.13;;
7881;SDS011;3986;41.884;23.466;2022-08-20T13:02:47;54.65;;;13.55;;
7881;SDS011;3986;41.884;23.466;2022-08-20T13:05:15;84.32;;;15.18;;
7881;SDS011;3986;41.884;23.466;2022-08-20T13:07:42;101.95;;;15.95;;
7881;SDS011;3986;41.884;23.466;2022-08-20T13:10:13;86.20;;;15.35;;
7881;SDS011;3986;41.884;23.466;2022-08-20T13:12:41;82.72;;;14.80;;
7881;SDS011;3986;41.884;23.466;2022-08-20T13:15:09;111.68;;;17.77;;
7881;SDS011;3986;41.884;23.466;2022-08-20T13:17:36;79.10;;;14.52;;
7881;SDS011;3986;41.884;23.466;2022-08-20T13:20:03;157.27;;;17.77;;
7881;SDS011;3986;41.884;23.466;2022-08-20T13:22:32;134.15;;;16.65;;
7881;SDS011;3986;41.884;23.466;2022-08-20T13:24:59;83.95;;;16.73;;
7881;SDS011;3986;41.884;23.466;2022-08-20T13:27:27;99.55;;;16.42;;
7881;SDS011;3986;41.884;23.466;2022-08-20T13:29:54;81.40;;;15.50;;
7881;SDS011;3986;41.884;23.466;2022-08-20T13:32:22;74.07;;;15.23;;
7881;SDS011;3986;41.884;23.466;2022-08-20T13:34:49;110.03;;;17.45;;
7881;SDS011;3986;41.884;23.466;2022-08-20T13:37:17;63.50;;;15.25;;
7881;SDS011;3986;41.884;23.466;2022-08-20T13:39:45;57.83;;;17.98;;
7881;SDS011;3986;41.884;23.466;2022-08-20T13:42:12;117.63;;;17.75;;
7881;SDS011;3986;41.884;23.466;2022-08-20T13:44:41;139.57;;;19.33;;
7881;SDS011;3986;41.884;23.466;2022-08-20T13:47:14;206.82;;;20.27;;
7881;SDS011;3986;41.884;23.466;2022-08-20T13:49:42;130.45;;;19.67;;
7881;SDS011;3986;41.884;23.466;2022-08-20T13:52:09;97.25;;;18.05;;
7881;SDS011;3986;41.884;23.466;2022-08-20T13:54:37;85.88;;;15.73;;
7881;SDS011;3986;41.884;23.466;2022-08-20T13:57:05;156.52;;;20.08;;
7881;SDS011;3986;41.884;23.466;2022-08-20T13:59:34;101.10;;;16.65;;
7881;SDS011;3986;41.884;23.466;2022-08-20T14:02:03;107.38;;;16.23;;
7881;SDS011;3986;41.884;23.466;2022-08-20T14:04:31;104.25;;;16.27;;
7881;SDS011;3986;41.884;23.466;2022-08-20T14:15:39;77.10;;;14.80;;
7881;SDS011;3986;41.884;23.466;2022-08-20T14:18:06;47.47;;;13.68;;
7881;SDS011;3986;41.884;23.466;2022-08-20T14:20:33;104.03;;;15.50;;
7881;SDS011;3986;41.884;23.466;2022-08-20T14:23:01;119.55;;;16.67;;
7881;SDS011;3986;41.884;23.466;2022-08-20T14:25:29;65.78;;;13.82;;
7881;SDS011;3986;41.884;23.466;2022-08-20T14:27:57;81.95;;;15.43;;
7881;SDS011;3986;41.884;23.466;2022-08-20T14:30:25;164.20;;;18.58;;
7881;SDS011;3986;41.884;23.466;2022-08-20T14:32:54;53.22;;;12.98;;
7881;SDS011;3986;41.884;23.466;2022-08-20T14:35:21;53.95;;;14.38;;
7881;SDS011;3986;41.884;23.466;2022-08-20T14:37:49;45.33;;;13.60;;
7881;SDS011;3986;41.884;23.466;2022-08-20T14:40:17;36.17;;;15.90;;
7881;SDS011;3986;41.884;23.466;2022-08-20T14:42:46;52.67;;;13.00;;
7881;SDS011;3986;41.884;23.466;2022-08-20T14:45:14;57.63;;;13.65;;
7881;SDS011;3986;41.884;23.466;2022-08-20T14:47:41;59.78;;;13.85;;
7881;SDS011;3986;41.884;23.466;2022-08-20T14:50:11;37.97;;;13.85;;
7881;SDS011;3986;41.884;23.466;2022-08-20T14:52:41;43.72;;;15.40;;